Time;durP1;ratioP1;P1;durP2;ratioP2;P2;SDS_P1;SDS_P2;PMS_P1;PMS_P2;Temp;Humidity;BMP_temperature;BMP_pressure;BME280_temperature;BME280_humidity;BME280_pressure;Samples;Min_cycle;Max_cycle;Signal;HPM_P1;HPM_P2
2021/11/28 00:02:26;;;;;;;11.20;6.15;;;;;;;5.06;96.57;99337.97;4956404;28;20043;-52
2021/11/28 00:04:54;;;;;;;11.85;5.80;;;;;;;5.05;96.09;99344.44;4956451;29;20123;-54
2021/11/28 00:12:40;;;;;;;;;;;;;;;5.03;96.19;99343.91;4955841;29;20043;-54
2021/11/28 00:15:14;;;;;;;9.68;4.90;;;;;;;5.05;95.85;99349.84;4956527;28;19923;-52
2021/11/28 00:17:42;;;;;;;11.70;5.20;;;;;;;5.04;95.58;99353.59;4957218;28;20058;-54
2021/11/28 00:20:14;;;;;;;11.63;5.07;;;;;;;5.04;95.67;99350.91;4956121;28;20051;-53
2021/11/28 00:22:42;;;;;;;11.88;5.07;;;;;;;5.02;95.72;99358.47;4955689;29;20043;-50
2021/11/28 00:25:13;;;;;;;10.52;4.95;;;;;;;5.00;95.32;99362.50;4955953;29;20055;-50
2021/11/28 00:27:41;;;;;;;11.60;4.90;;;;;;;4.99;95.87;99359.00;4955870;28;20051;-54
2021/11/28 00:30:14;;;;;;;9.25;4.97;;;;;;;4.99;95.79;99359.00;4956872;28;20035;-52
2021/11/28 00:32:41;;;;;;;9.25;5.18;;;;;;;4.97;95.57;99357.66;4955939;28;20058;-51
2021/11/28 00:35:10;;;;;;;12.55;5.32;;;;;;;4.95;95.99;99359.78;4954525;28;20043;-51
2021/11/28 00:37:37;;;;;;;10.85;5.25;;;;;;;4.96;95.72;99361.44;4955027;29;20050;-54
2021/11/28 00:40:06;;;;;;;10.20;5.60;;;;;;;4.95;95.46;99359.78;4988093;28;20414;-54
2021/11/28 00:42:33;;;;;;;9.43;5.40;;;;;;;4.94;96.24;99360.88;4955965;28;20074;-54
2021/11/28 00:45:03;;;;;;;9.27;5.15;;;;;;;4.94;96.04;99359.00;4986344;28;20131;-53
2021/11/28 00:47:31;;;;;;;11.60;5.28;;;;;;;4.94;96.16;99364.38;4954521;29;20043;-55
2021/11/28 00:52:40;;;;;;;9.25;5.32;;;;;;;4.98;96.29;99368.19;4942809;29;20611;-50
2021/11/28 00:55:09;;;;;;;11.10;5.55;;;;;;;4.99;95.91;99372.50;4955855;28;20116;-53
2021/11/28 00:57:37;;;;;;;9.85;5.28;;;;;;;4.99;96.38;99375.19;4986830;28;20039;-54
2021/11/28 01:00:09;;;;;;;10.60;5.47;;;;;;;4.99;96.16;99377.91;4972022;28;20047;-51
2021/11/28 01:02:40;;;;;;;9.57;5.70;;;;;;;5.00;96.42;99374.09;4955114;28;20075;-52
2021/11/28 01:05:09;;;;;;;11.35;5.82;;;;;;;5.00;96.19;99376.81;4954023;29;20051;-50
2021/11/28 01:07:38;;;;;;;11.07;6.13;;;;;;;5.02;96.18;99379.25;4953826;29;20044;-51
2021/11/28 01:10:08;;;;;;;12.38;5.88;;;;;;;5.00;96.05;99376.00;4956358;28;20039;-49
2021/11/28 01:12:36;;;;;;;10.65;5.45;;;;;;;4.96;96.19;99378.44;4985883;28;20133;-49
2021/11/28 01:15:05;;;;;;;10.75;5.97;;;;;;;4.95;95.94;99387.59;4955243;28;20430;-53
2021/11/28 01:17:34;;;;;;;12.05;5.78;;;;;;;4.93;96.23;99378.13;4955455;28;20172;-49
2021/11/28 01:20:04;;;;;;;11.48;5.72;;;;;;;4.94;96.52;99390.56;4955358;28;20054;-51
2021/11/28 01:22:31;;;;;;;12.35;6.50;;;;;;;4.94;96.14;99387.88;4946511;29;20035;-50
2021/11/28 01:25:00;;;;;;;12.90;6.10;;;;;;;4.92;96.22;99393.53;4953720;29;20501;-52
2021/11/28 01:27:27;;;;;;;12.57;6.05;;;;;;;4.93;96.33;99402.44;4954718;28;20506;-51
2021/11/28 01:29:55;;;;;;;13.30;6.40;;;;;;;4.90;96.17;99395.69;4955696;28;20049;-50
2021/11/28 01:32:22;;;;;;;12.88;6.43;;;;;;;4.89;96.42;99405.66;4955204;29;20043;-54
2021/11/28 01:34:50;;;;;;;13.32;6.63;;;;;;;4.89;96.26;99402.16;4953100;29;20134;-48
2021/11/28 01:37:18;;;;;;;11.20;6.32;;;;;;;4.83;96.03;99408.59;4955153;28;20047;-50
2021/11/28 01:39:47;;;;;;;12.18;6.65;;;;;;;4.78;96.65;99403.19;4954305;28;20062;-53
2021/11/28 01:42:15;;;;;;;12.63;6.55;;;;;;;4.82;97.01;99415.09;4953363;29;20062;-51
2021/11/28 01:44:42;;;;;;;15.35;6.70;;;;;;;4.84;96.81;99413.75;4953382;29;20123;-54
2021/11/28 01:47:10;;;;;;;15.45;7.15;;;;;;;4.87;96.73;99421.31;4985301;28;20063;-55
2021/11/28 01:49:37;;;;;;;12.15;6.70;;;;;;;4.89;96.64;99423.75;4952466;29;20079;-55
2021/11/28 01:52:07;;;;;;;9.98;6.88;;;;;;;4.87;96.83;99428.59;4954326;28;20129;-52
2021/11/28 01:54:34;;;;;;;17.92;7.70;;;;;;;4.87;96.61;99439.41;4954321;28;20125;-54
2021/11/28 01:57:02;;;;;;;15.82;7.55;;;;;;;4.86;96.78;99432.38;4953027;29;20043;-48
2021/11/28 01:59:30;;;;;;;15.98;8.07;;;;;;;4.88;96.49;99436.44;4953999;28;20070;-51
2021/11/28 02:01:57;;;;;;;11.40;6.82;;;;;;;4.90;96.55;99444.25;4955932;28;20055;-53
2021/11/28 02:04:25;;;;;;;16.58;8.40;;;;;;;4.91;96.35;99430.50;4952370;28;20506;-53
2021/11/28 02:06:53;;;;;;;15.23;7.97;;;;;;;4.91;96.08;99441.31;4937160;28;20050;-52
2021/11/28 02:09:21;;;;;;;15.98;8.55;;;;;;;4.87;95.77;99442.91;4953467;28;20164;-54
2021/11/28 02:11:49;;;;;;;16.45;7.90;;;;;;;4.77;95.54;99440.16;4955381;28;20039;-49
2021/11/28 02:14:16;;;;;;;14.23;7.50;;;;;;;4.74;96.04;99447.97;4953239;28;20054;-50
2021/11/28 02:16:49;;;;;;;16.17;7.88;;;;;;;4.73;96.46;99447.16;4939633;29;20058;-50
2021/11/28 02:19:16;;;;;;;15.70;8.23;;;;;;;4.75;97.14;99436.13;4957997;28;20097;-49
2021/11/28 02:21:44;;;;;;;17.75;8.40;;;;;;;4.77;96.54;99437.47;4954915;28;20039;-52
2021/11/28 02:24:12;;;;;;;18.65;9.43;;;;;;;4.76;96.76;99437.72;4985381;28;20055;-48
2021/11/28 02:26:40;;;;;;;15.25;8.88;;;;;;;4.75;96.45;99436.13;4952580;29;20053;-50
2021/11/28 02:29:09;;;;;;;17.33;8.98;;;;;;;4.73;96.52;99440.94;4968490;28;20648;-53
2021/11/28 02:31:36;;;;;;;16.63;8.18;;;;;;;4.71;97.04;99441.22;4953992;29;20074;-53
2021/11/28 02:34:04;;;;;;;15.60;8.88;;;;;;;4.73;96.83;99439.06;4953038;28;20050;-49
2021/11/28 02:36:33;;;;;;;17.38;9.95;;;;;;;4.68;96.50;99439.84;4953719;29;20043;-48
2021/11/28 02:39:01;;;;;;;17.58;9.07;;;;;;;4.61;96.70;99447.38;4952326;29;20051;-49
2021/11/28 02:41:29;;;;;;;16.83;9.07;;;;;;;4.57;97.19;99451.69;4984786;28;20045;-53
2021/11/28 02:43:57;;;;;;;17.23;9.55;;;;;;;4.55;97.40;99448.44;4952091;29;20571;-50
2021/11/28 02:46:28;;;;;;;15.90;9.45;;;;;;;4.56;98.07;99455.44;4985922;28;20446;-50
2021/11/28 02:48:56;;;;;;;18.45;9.45;;;;;;;4.55;97.57;99447.63;4953271;28;20138;-48
2021/11/28 02:51:24;;;;;;;18.10;9.93;;;;;;;4.50;97.30;99456.50;4984341;28;20058;-54
2021/11/28 02:53:53;;;;;;;17.52;9.65;;;;;;;4.48;98.18;99454.06;4952311;29;20050;-50
2021/11/28 02:56:20;;;;;;;17.30;9.88;;;;;;;4.53;98.58;99466.75;4961669;28;20051;-54
2021/11/28 02:58:48;;;;;;;18.95;9.50;;;;;;;4.59;98.70;99449.50;4947863;28;20054;-51
2021/11/28 03:01:18;;;;;;;17.40;9.27;;;;;;;4.66;98.04;99455.47;4952065;29;20383;-48
2021/11/28 03:04:09;;;;;;;19.48;9.65;;;;;;;4.73;98.01;99457.94;4931810;29;20055;-49
2021/11/28 03:06:37;;;;;;;20.83;10.60;;;;;;;4.76;97.78;99459.31;4938535;29;20059;-50
2021/11/28 03:09:05;;;;;;;19.23;10.00;;;;;;;4.70;96.92;99451.19;4935556;29;20576;-51
2021/11/28 03:11:33;;;;;;;22.60;10.02;;;;;;;4.70;97.81;99458.47;4915074;29;20047;-52
2021/11/28 03:14:01;;;;;;;17.48;10.18;;;;;;;4.73;98.04;99459.84;4916144;29;20047;-50
2021/11/28 03:16:29;;;;;;;18.25;10.15;;;;;;;4.76;97.69;99460.13;4916514;29;20518;-49
2021/11/28 03:18:56;;;;;;;22.05;9.95;;;;;;;4.80;97.75;99465.81;4916133;29;20399;-49
2021/11/28 03:21:27;;;;;;;20.92;10.52;;;;;;;4.81;97.22;99468.25;4931873;29;20066;-51
2021/11/28 03:23:58;;;;;;;21.25;10.77;;;;;;;4.79;96.82;99470.41;4931878;29;20044;-52
2021/11/28 03:26:31;;;;;;;17.63;10.40;;;;;;;4.77;96.96;99469.84;4932246;29;20040;-47
2021/11/28 03:29:05;;;;;;;17.42;10.77;;;;;;;4.75;97.00;99473.88;4931515;29;20138;-50
2021/11/28 03:32:02;;;;;;;18.85;11.52;;;;;;;4.66;96.58;99477.06;4931128;29;20413;-52
2021/11/28 03:34:36;;;;;;;16.90;11.02;;;;;;;4.63;97.51;99482.19;4931911;29;20066;-51
2021/11/28 03:37:14;;;;;;;25.20;13.57;;;;;;;4.59;97.65;99476.50;4928904;29;20039;-52
2021/11/28 03:39:42;;;;;;;22.15;13.23;;;;;;;4.55;98.09;99485.41;4931609;29;20210;-52
2021/11/28 03:42:10;;;;;;;22.65;13.68;;;;;;;4.52;97.94;99481.31;4947375;29;20461;-49
2021/11/28 03:44:42;;;;;;;19.58;13.07;;;;;;;4.55;98.33;99480.00;4950092;29;20039;-49
2021/11/28 03:47:13;;;;;;;21.92;13.57;;;;;;;4.57;98.49;99475.97;4952956;28;20103;-50
2021/11/28 03:49:43;;;;;;;20.50;13.40;;;;;;;4.60;97.85;99482.72;4951443;29;20498;-52
2021/11/28 03:52:11;;;;;;;22.13;14.10;;;;;;;4.60;98.01;99483.53;4951994;29;20180;-51
2021/11/28 03:54:40;;;;;;;20.52;15.10;;;;;;;4.60;98.39;99483.53;4951757;29;20047;-54
2021/11/28 03:57:09;;;;;;;20.05;13.80;;;;;;;4.63;98.48;99477.59;4953048;28;20095;-55
2021/11/28 03:59:37;;;;;;;21.80;15.13;;;;;;;4.62;97.59;99489.47;4951143;28;20106;-48
2021/11/28 04:02:06;;;;;;;21.85;15.07;;;;;;;4.57;97.33;99488.63;4951670;29;20114;-49
2021/11/28 04:04:34;;;;;;;20.30;15.48;;;;;;;4.53;97.89;99490.22;4951434;29;20043;-50
2021/11/28 04:07:05;;;;;;;23.73;15.55;;;;;;;4.47;97.93;99492.06;4953946;28;20386;-50
2021/11/28 04:09:34;;;;;;;22.50;13.75;;;;;;;4.41;98.23;99485.03;4951141;28;20053;-51
2021/11/28 04:12:06;;;;;;;21.48;13.90;;;;;;;4.42;98.55;99492.84;4953962;28;20047;-51
2021/11/28 04:14:33;;;;;;;19.67;12.48;;;;;;;4.47;98.73;99492.06;4954478;28;20047;-52
2021/11/28 04:17:03;;;;;;;19.92;12.57;;;;;;;4.53;99.20;99485.66;4956294;28;20051;-50
2021/11/28 04:19:35;;;;;;;16.98;11.48;;;;;;;4.58;98.65;99484.88;4954893;29;20585;-54
2021/11/28 04:22:03;;;;;;;16.88;11.13;;;;;;;4.58;98.11;99490.25;4955024;29;20051;-52
2021/11/28 04:24:32;;;;;;;15.65;11.20;;;;;;;4.57;97.90;99496.72;4954570;29;20103;-51
2021/11/28 04:27:02;;;;;;;16.15;10.63;;;;;;;4.56;98.49;99487.81;4956075;28;20326;-52
2021/11/28 04:29:30;;;;;;;16.25;10.30;;;;;;;4.56;98.40;99501.28;4954059;29;20450;-52
2021/11/28 04:31:58;;;;;;;15.52;9.93;;;;;;;4.58;98.34;99501.84;4954748;29;20492;-54
2021/11/28 04:34:26;;;;;;;16.98;9.90;;;;;;;4.63;98.26;99509.16;4954669;29;20054;-55
2021/11/28 04:36:53;;;;;;;14.15;9.18;;;;;;;4.67;98.34;99504.88;4939731;29;20058;-55
2021/11/28 04:39:24;;;;;;;18.17;9.68;;;;;;;4.68;98.08;99506.50;4954287;28;20142;-54
2021/11/28 04:41:51;;;;;;;14.93;9.55;;;;;;;4.68;98.13;99518.09;4954580;29;20058;-53
2021/11/28 04:44:22;;;;;;;13.98;9.43;;;;;;;4.72;98.28;99512.19;4954166;29;20074;-46
2021/11/28 04:46:51;;;;;;;15.02;9.05;;;;;;;4.69;97.52;99517.03;4987598;28;20051;-50
2021/11/28 04:49:19;;;;;;;16.90;10.43;;;;;;;4.67;97.37;99521.06;4955866;29;20094;-51
2021/11/28 04:51:47;;;;;;;14.57;9.77;;;;;;;4.67;97.86;99516.47;4955884;28;20058;-49
2021/11/28 04:54:15;;;;;;;16.13;10.30;;;;;;;4.67;98.08;99518.38;4955533;29;20046;-51
2021/11/28 04:56:45;;;;;;;14.75;9.93;;;;;;;4.57;98.09;99521.81;4954370;29;20126;-51
2021/11/28 04:59:12;;;;;;;17.15;10.68;;;;;;;4.55;97.56;99513.16;4976610;28;20051;-49
2021/11/28 05:01:42;;;;;;;18.52;11.57;;;;;;;4.52;97.57;99520.97;4954585;29;20051;-49
2021/11/28 05:04:17;;;;;;;15.60;10.63;;;;;;;4.48;98.09;99517.97;4954181;29;20043;-50
2021/11/28 05:06:51;;;;;;;18.17;12.85;;;;;;;4.47;98.17;99521.72;4955722;28;20043;-52
2021/11/28 05:09:36;;;;;;;17.45;12.05;;;;;;;4.44;98.81;99516.88;4954850;28;20505;-47
2021/11/28 05:12:04;;;;;;;18.38;13.70;;;;;;;4.43;98.26;99520.66;4954717;28;20054;-49
2021/11/28 05:14:32;;;;;;;18.05;12.63;;;;;;;4.43;98.73;99521.44;4954115;29;20031;-47
2021/11/28 05:17:00;;;;;;;16.30;12.35;;;;;;;4.51;98.96;99520.16;4954024;29;20508;-50
2021/11/28 05:19:38;;;;;;;16.65;12.77;;;;;;;4.57;98.97;99521.81;4956419;28;20047;-54
2021/11/28 05:22:44;;;;;;;20.10;14.15;;;;;;;4.60;98.49;99515.91;4914607;29;20139;-53
2021/11/28 05:25:12;;;;;;;19.00;13.77;;;;;;;4.62;98.83;99513.75;4898882;29;20139;-50
2021/11/28 05:27:42;;;;;;;21.45;13.90;;;;;;;4.65;98.15;99523.22;4911062;29;20521;-48
2021/11/28 05:30:10;;;;;;;19.23;13.68;;;;;;;4.67;97.83;99521.88;4908649;29;20059;-54
2021/11/28 05:32:57;;;;;;;20.02;13.68;;;;;;;4.72;98.04;99539.19;4910561;29;20055;-49
2021/11/28 05:35:45;;;;;;;18.83;13.57;;;;;;;4.72;97.80;99531.09;4895509;29;20539;-52
2021/11/28 05:38:34;;;;;;;18.13;13.90;;;;;;;4.72;97.59;99534.59;4894500;29;20069;-53
2021/11/28 05:41:01;;;;;;;18.48;13.80;;;;;;;4.70;97.06;99542.94;4877661;29;20056;-49
2021/11/28 05:43:31;;;;;;;17.92;14.10;;;;;;;4.67;97.05;99538.06;4879328;29;20127;-52
2021/11/28 05:45:58;;;;;;;18.92;13.25;;;;;;;4.67;97.07;99542.66;4894665;29;20527;-49
2021/11/28 05:48:47;;;;;;;17.95;13.48;;;;;;;4.63;97.29;99552.31;4894541;29;20044;-54
2021/11/28 05:51:31;;;;;;;19.13;14.55;;;;;;;4.60;97.34;99553.66;4887129;29;20044;-51
2021/11/28 05:53:59;;;;;;;18.40;14.13;;;;;;;4.59;97.82;99562.81;4891308;29;20056;-51
2021/11/28 05:56:29;;;;;;;18.98;14.65;;;;;;;4.61;97.62;99565.25;4897446;29;20175;-53
2021/11/28 05:58:57;;;;;;;17.50;13.80;;;;;;;4.61;97.71;99566.06;4912358;29;20080;-49
2021/11/28 06:01:25;;;;;;;18.65;14.27;;;;;;;4.63;97.93;99561.22;4898848;29;20052;-51
2021/11/28 06:03:53;;;;;;;18.23;14.55;;;;;;;4.64;97.86;99565.56;4897624;29;20104;-49
2021/11/28 06:06:39;;;;;;;;;;;;;;;4.65;97.42;99560.97;4913774;29;20052;-49
2021/11/28 06:09:13;;;;;;;19.00;14.93;;;;;;;4.65;97.91;99566.38;4896944;29;19927;-49
2021/11/28 06:11:41;;;;;;;19.75;14.95;;;;;;;4.66;98.01;99571.50;4913983;29;20041;-49
2021/11/28 06:14:09;;;;;;;20.67;15.65;;;;;;;4.67;97.46;99564.22;4953750;28;20055;-51
2021/11/28 06:16:48;;;;;;;20.58;16.08;;;;;;;4.65;97.19;99571.78;4953540;28;20497;-49
2021/11/28 06:19:34;;;;;;;;;;;;;;;4.61;97.42;99571.47;4954486;28;20058;-53
2021/11/28 06:22:25;;;;;;;19.55;15.70;;;;;;;4.56;97.90;99565.22;4894500;29;19995;-50
2021/11/28 06:24:57;;;;;;;20.40;16.58;;;;;;;4.53;98.26;99563.88;4881157;29;20108;-51
2021/11/28 06:27:34;;;;;;;20.42;16.33;;;;;;;4.53;98.59;99573.84;4895723;29;20147;-51
2021/11/28 06:30:05;;;;;;;21.42;17.30;;;;;;;4.51;98.51;99575.97;4893557;29;20056;-52
2021/11/28 06:32:52;;;;;;;21.63;16.98;;;;;;;4.52;98.63;99586.50;4894096;29;20049;-49
2021/11/28 06:35:52;;;;;;;24.67;17.48;;;;;;;4.53;98.54;99590.84;4856595;29;20049;-48
2021/11/28 06:38:26;;;;;;;21.05;17.65;;;;;;;4.58;98.35;99588.16;4860750;29;20078;-49
2021/11/28 06:41:12;;;;;;;20.65;17.15;;;;;;;4.63;98.43;99590.09;4856010;29;20048;-50
2021/11/28 06:43:40;;;;;;;20.25;16.23;;;;;;;4.66;98.08;99594.97;4856945;29;20173;-48
2021/11/28 06:46:07;;;;;;;21.83;16.98;;;;;;;4.66;98.06;99593.06;4841403;29;20050;-50
2021/11/28 06:48:36;;;;;;;22.30;16.70;;;;;;;4.68;97.87;99590.94;4841429;29;20441;-48
2021/11/28 06:51:22;;;;;;;20.80;16.67;;;;;;;4.71;97.66;99592.31;4856114;29;20165;-49
2021/11/28 06:53:51;;;;;;;20.65;17.52;;;;;;;4.72;97.57;99601.22;4855196;29;20129;-48
2021/11/28 06:56:42;;;;;;;23.02;18.15;;;;;;;4.68;97.38;99601.72;4820071;29;20077;-49
2021/11/28 06:59:09;;;;;;;21.23;17.73;;;;;;;4.65;97.33;99604.94;4821181;29;20085;-53
2021/11/28 07:01:45;;;;;;;20.45;16.48;;;;;;;4.65;97.42;99609.53;4182062;29;10000139;-51
2021/11/28 07:04:32;;;;;;;24.42;17.38;;;;;;;4.65;97.54;99610.34;4854347;29;20053;-48
2021/11/28 07:07:24;;;;;;;22.08;17.60;;;;;;;4.58;97.52;99622.44;4853922;29;20694;-48
2021/11/28 07:10:12;;;;;;;27.38;18.30;;;;;;;4.52;97.35;99635.03;4853792;29;20132;-49
2021/11/28 07:12:42;;;;;;;24.45;18.17;;;;;;;4.48;98.16;99633.94;4853352;29;20053;-52
2021/11/28 07:15:22;;;;;;;23.38;17.52;;;;;;;4.47;98.29;99635.00;4854367;29;20054;-49
2021/11/28 07:17:50;;;;;;;21.73;16.75;;;;;;;4.49;99.12;99633.69;4853398;29;20056;-47
2021/11/28 07:20:37;;;;;;;20.38;17.48;;;;;;;4.52;98.54;99635.03;4853779;29;20568;-47
2021/11/28 07:23:05;;;;;;;24.00;20.02;;;;;;;4.51;98.47;99641.53;4870093;29;20514;-48
2021/11/28 07:25:32;;;;;;;21.42;17.80;;;;;;;4.53;97.74;99646.66;4853668;29;20204;-48
2021/11/28 07:28:17;;;;;;;22.27;18.00;;;;;;;4.53;97.44;99641.28;4852950;29;20137;-49
2021/11/28 07:30:49;;;;;;;22.48;18.25;;;;;;;4.52;97.76;99647.72;4838832;29;20645;-48
2021/11/28 07:33:38;;;;;;;22.38;18.80;;;;;;;4.52;97.70;99645.84;4895711;28;20051;-47
2021/11/28 07:36:28;;;;;;;24.08;18.77;;;;;;;4.54;97.73;99651.78;4890529;29;20055;-49
2021/11/28 07:38:59;;;;;;;25.58;17.85;;;;;;;4.57;97.78;99654.00;4890898;29;20151;-49
2021/11/28 07:41:26;;;;;;;25.85;19.48;;;;;;;4.58;97.80;99660.19;4890293;29;20127;-49
2021/11/28 07:44:17;;;;;;;23.50;18.77;;;;;;;4.56;97.41;99673.94;4890737;29;20064;-48
2021/11/28 07:47:03;;;;;;;22.80;19.13;;;;;;;4.52;97.36;99670.13;4894789;29;20810;-47
2021/11/28 07:49:39;;;;;;;24.42;19.08;;;;;;;4.48;97.21;99677.09;4878689;29;20133;-46
2021/11/28 07:52:18;;;;;;;24.80;19.55;;;;;;;4.42;97.10;99686.22;4894219;29;20048;-50
2021/11/28 07:54:46;;;;;;;23.20;19.45;;;;;;;4.40;97.40;99689.19;4894397;29;20088;-49
2021/11/28 07:57:30;;;;;;;23.00;19.15;;;;;;;4.22;97.00;99698.41;4894488;29;20152;-50
2021/11/28 08:00:16;;;;;;;23.38;19.50;;;;;;;4.22;98.17;99698.41;4887416;29;20572;-49
2021/11/28 08:02:48;;;;;;;24.77;19.08;;;;;;;4.28;98.60;99704.66;4894687;29;20554;-49
2021/11/28 08:05:35;;;;;;;25.00;20.42;;;;;;;4.29;97.03;99703.63;4893694;29;20144;-50
2021/11/28 08:08:22;;;;;;;25.50;20.40;;;;;;;4.31;97.56;99709.56;4878678;29;20060;-46
2021/11/28 08:11:09;;;;;;;24.45;19.80;;;;;;;4.26;97.43;99715.72;4892622;29;20076;-50
2021/11/28 08:13:36;;;;;;;28.25;22.85;;;;;;;4.24;95.91;99712.47;4924192;29;20047;-50
2021/11/28 08:16:04;;;;;;;27.38;21.15;;;;;;;4.13;96.54;99713.41;4953792;28;20593;-49
2021/11/28 08:18:33;;;;;;;28.02;21.33;;;;;;;4.14;96.99;99717.75;4944122;29;20047;-52
2021/11/28 08:21:00;;;;;;;28.33;21.80;;;;;;;4.19;97.12;99715.13;4954377;29;20047;-51
2021/11/28 08:23:28;;;;;;;28.05;22.90;;;;;;;4.25;96.69;99724.88;4956255;29;20370;-51
2021/11/28 08:25:56;;;;;;;28.63;22.38;;;;;;;4.32;96.37;99729.25;4955001;28;20375;-50
2021/11/28 08:28:24;;;;;;;28.15;22.95;;;;;;;4.36;96.14;99725.81;4955820;28;20134;-53
2021/11/28 08:30:51;;;;;;;30.17;22.23;;;;;;;4.38;95.20;99725.56;4956377;28;20043;-53
2021/11/28 08:33:37;;;;;;;29.13;22.00;;;;;;;4.38;95.17;99730.97;4946876;29;20125;-48
2021/11/28 08:36:20;;;;;;;29.55;20.27;;;;;;;4.40;96.33;99735.03;4955921;28;20050;-48
2021/11/28 08:38:48;;;;;;;26.48;21.40;;;;;;;4.44;95.19;99740.72;4955367;28;20054;-48
2021/11/28 08:41:16;;;;;;;26.00;21.17;;;;;;;4.42;94.82;99745.53;4955196;28;20066;-49
2021/11/28 08:43:44;;;;;;;29.60;22.85;;;;;;;4.36;94.07;99738.47;4955560;28;20043;-49
2021/11/28 08:46:11;;;;;;;29.38;22.95;;;;;;;4.30;94.00;99743.00;4956735;28;20039;-50
2021/11/28 08:48:40;;;;;;;30.60;24.13;;;;;;;4.23;93.90;99736.97;4955754;28;20049;-51
2021/11/28 08:51:08;;;;;;;33.65;24.85;;;;;;;4.25;94.22;99741.03;4953842;29;20047;-50
2021/11/28 08:53:37;;;;;;;30.65;25.23;;;;;;;4.25;94.26;99749.13;4955517;28;20049;-51
2021/11/28 08:56:05;;;;;;;33.05;25.83;;;;;;;4.25;94.09;99741.03;4956665;28;20054;-50
2021/11/28 08:58:33;;;;;;;32.25;25.75;;;;;;;4.27;94.47;99744.31;4955094;28;20110;-51
2021/11/28 09:01:01;;;;;;;31.95;25.58;;;;;;;4.30;94.42;99734.09;4954421;29;20086;-51
2021/11/28 09:03:29;;;;;;;31.38;25.35;;;;;;;4.31;94.07;99746.53;4954152;29;20080;-53
2021/11/28 09:05:57;;;;;;;32.65;25.95;;;;;;;4.30;93.50;99744.88;4954945;28;20039;-52
2021/11/28 09:08:24;;;;;;;32.65;26.30;;;;;;;4.25;93.69;99746.44;4954962;28;20062;-50
2021/11/28 09:10:52;;;;;;;34.08;26.60;;;;;;;4.23;93.62;99750.44;4955215;28;20065;-51
2021/11/28 09:13:21;;;;;;;32.42;26.13;;;;;;;4.26;94.35;99747.28;4964209;28;20043;-51
2021/11/28 09:15:48;;;;;;;32.92;26.30;;;;;;;4.25;94.07;99757.22;4955512;28;20469;-50
2021/11/28 09:18:45;;;;;;;33.92;26.27;;;;;;;4.27;94.07;99755.09;4955874;28;20047;-52
2021/11/28 09:21:15;;;;;;;35.55;28.23;;;;;;;4.26;93.91;99758.88;4955333;28;20035;-50
2021/11/28 09:26:31;;;;;;;36.17;25.70;;;;;;;4.23;93.82;99759.38;4954969;28;20045;-46
2021/11/28 09:29:00;;;;;;;32.35;25.95;;;;;;;4.26;93.59;99758.88;4956246;28;20066;-52
2021/11/28 09:31:30;;;;;;;31.63;25.45;;;;;;;4.31;93.50;99776.19;4954917;28;20137;-49
2021/11/28 09:33:59;;;;;;;34.20;26.85;;;;;;;4.34;93.27;99776.47;4954492;28;20199;-46
2021/11/28 09:36:29;;;;;;;31.65;25.90;;;;;;;4.32;93.53;99773.22;4953748;29;20043;-45
2021/11/28 09:38:56;;;;;;;32.67;25.70;;;;;;;4.34;93.46;99781.88;4956300;28;20047;-49
2021/11/28 09:41:25;;;;;;;33.10;26.00;;;;;;;4.38;93.53;99771.41;4954886;29;20070;-47
2021/11/28 09:43:57;;;;;;;31.05;25.48;;;;;;;4.42;93.34;99778.72;4953616;29;20121;-51
2021/11/28 09:46:25;;;;;;;32.20;25.98;;;;;;;4.47;93.21;99775.25;4953320;29;20047;-54
2021/11/28 09:48:57;;;;;;;33.53;26.40;;;;;;;4.48;93.05;99776.91;4953833;28;20032;-52
2021/11/28 09:51:29;;;;;;;31.85;26.50;;;;;;;4.50;92.92;99777.47;4954406;28;20035;-52
2021/11/28 09:53:58;;;;;;;32.33;25.67;;;;;;;4.52;92.75;99774.50;4953431;29;20402;-51
2021/11/28 09:56:27;;;;;;;32.33;26.42;;;;;;;4.54;92.88;99773.19;4954537;28;20073;-50
2021/11/28 09:58:55;;;;;;;32.72;26.10;;;;;;;4.54;92.06;99770.47;4954313;29;20043;-51
2021/11/28 10:01:23;;;;;;;32.05;25.83;;;;;;;4.54;92.88;99770.47;4955476;28;20059;-51
2021/11/28 10:03:51;;;;;;;32.10;26.15;;;;;;;4.57;92.90;99775.38;4937013;29;20046;-50
2021/11/28 10:06:19;;;;;;;32.15;26.08;;;;;;;4.60;92.92;99774.06;4954207;29;20039;-50
2021/11/28 10:08:48;;;;;;;30.40;24.25;;;;;;;4.61;93.04;99768.41;4954164;28;20441;-50
2021/11/28 10:11:18;;;;;;;29.65;24.30;;;;;;;4.63;93.07;99766.25;4954003;28;20395;-55
2021/11/28 10:13:51;;;;;;;34.25;26.15;;;;;;;4.65;93.54;99766.81;4954220;29;20047;-52
2021/11/28 10:16:19;;;;;;;30.40;24.27;;;;;;;4.63;93.13;99768.16;4953474;28;20157;-51
2021/11/28 10:18:47;;;;;;;28.60;22.92;;;;;;;4.61;93.29;99767.59;4936914;29;20051;-53
2021/11/28 10:21:15;;;;;;;30.50;23.20;;;;;;;4.54;93.38;99762.38;4953967;28;20039;-50
2021/11/28 10:24:05;;;;;;;27.65;21.77;;;;;;;4.53;93.43;99759.97;4953969;28;20053;-53
2021/11/28 10:26:33;;;;;;;27.35;22.65;;;;;;;4.48;93.22;99760.72;4953659;28;20474;-51
2021/11/28 10:29:10;;;;;;;28.60;21.92;;;;;;;4.48;93.69;99766.13;4954818;28;20055;-54
2021/11/28 10:31:50;;;;;;;26.45;21.50;;;;;;;4.49;94.18;99762.34;4953547;28;20046;-50
2021/11/28 10:34:21;;;;;;;26.00;21.10;;;;;;;4.50;93.67;99763.97;4952685;29;20051;-54
2021/11/28 10:36:50;;;;;;;26.02;20.05;;;;;;;4.56;94.16;99754.06;4952937;29;20050;-48
2021/11/28 10:39:22;;;;;;;30.15;23.60;;;;;;;4.61;94.19;99759.50;4954748;28;20420;-49
2021/11/28 10:41:55;;;;;;;28.48;22.48;;;;;;;4.64;93.81;99762.50;4953929;28;20043;-48
2021/11/28 10:44:25;;;;;;;24.77;20.42;;;;;;;4.66;93.44;99757.66;4952871;28;20162;-52
2021/11/28 10:47:04;;;;;;;22.90;18.90;;;;;;;4.67;92.84;99753.09;4953403;28;20066;-48
2021/11/28 10:49:40;;;;;;;25.90;19.98;;;;;;;4.66;92.57;99754.16;4953647;28;20085;-49
2021/11/28 10:52:17;;;;;;;24.17;19.23;;;;;;;4.67;92.79;99756.59;4952706;28;20051;-54
2021/11/28 10:54:45;;;;;;;26.00;19.38;;;;;;;4.72;92.98;99755.03;4953077;29;20121;-50
2021/11/28 10:57:14;;;;;;;23.60;19.42;;;;;;;4.77;92.54;99750.47;4956678;28;20047;-53
2021/11/28 10:59:45;;;;;;;25.63;19.83;;;;;;;4.79;92.48;99750.25;4956689;28;20454;-48
2021/11/28 11:02:21;;;;;;;25.65;19.73;;;;;;;4.82;92.83;99749.72;4953594;28;20039;-51
2021/11/28 11:04:53;;;;;;;26.63;21.73;;;;;;;4.84;93.35;99750.28;4954224;28;20031;-53
2021/11/28 11:07:48;;;;;;;27.35;22.02;;;;;;;4.90;93.74;99741.94;4953641;28;20051;-49
2021/11/28 11:10:23;;;;;;;27.35;21.48;;;;;;;4.96;94.06;99750.91;4952251;29;20506;-49
2021/11/28 11:12:51;;;;;;;26.95;19.55;;;;;;;4.98;94.71;99748.78;4967181;28;20504;-48
2021/11/28 11:15:37;;;;;;;25.90;19.30;;;;;;;4.97;93.55;99751.72;4951612;29;20134;-52
2021/11/28 11:18:06;;;;;;;;;;;;;;;4.92;93.66;99755.19;4954077;28;20043;-49
2021/11/28 11:20:36;;;;;;;23.85;18.95;;;;;;;4.88;93.22;99754.06;4953468;28;19922;-56
2021/11/28 11:23:05;;;;;;;28.10;20.65;;;;;;;4.87;93.85;99760.56;4958347;28;20049;-51
2021/11/28 11:25:36;;;;;;;25.52;20.38;;;;;;;4.87;93.96;99760.56;4956974;28;20050;-50
2021/11/28 11:28:08;;;;;;;28.30;19.70;;;;;;;4.88;94.20;99748.66;4956394;28;20059;-50
2021/11/28 11:30:36;;;;;;;23.98;18.50;;;;;;;4.91;95.00;99756.28;4956960;28;20462;-49
2021/11/28 11:33:05;;;;;;;22.90;18.45;;;;;;;4.88;94.43;99752.22;4958136;28;20070;-46
2021/11/28 11:35:43;;;;;;;23.80;17.77;;;;;;;4.88;94.48;99756.78;4955990;29;20051;-50
2021/11/28 11:38:14;;;;;;;19.15;15.27;;;;;;;4.85;94.08;99751.91;4956505;28;20417;-46
2021/11/28 11:40:42;;;;;;;19.75;15.43;;;;;;;4.81;94.05;99754.31;4955826;28;20078;-45
2021/11/28 11:43:10;;;;;;;20.83;16.90;;;;;;;4.79;94.33;99759.13;4957456;28;20421;-50
2021/11/28 11:45:38;;;;;;;22.08;15.80;;;;;;;4.79;94.76;99761.03;4956937;28;20618;-45
2021/11/28 11:48:08;;;;;;;16.58;13.40;;;;;;;4.69;94.48;99767.97;4956781;28;20130;-48
2021/11/28 11:50:37;;;;;;;14.55;10.88;;;;;;;4.61;94.77;99771.09;4955774;29;20058;-53
2021/11/28 11:53:06;;;;;;;15.63;10.07;;;;;;;4.63;96.80;99760.06;4956900;28;20071;-50
2021/11/28 11:55:39;;;;;;;14.57;10.45;;;;;;;4.77;96.40;99755.06;4956933;28;20062;-52
2021/11/28 11:58:46;;;;;;;14.63;10.68;;;;;;;4.78;95.57;99764.78;4956046;29;20075;-51
2021/11/28 12:01:20;;;;;;;15.27;11.48;;;;;;;4.76;95.38;99754.22;4951608;28;20043;-45
2021/11/28 12:03:54;;;;;;;15.65;12.35;;;;;;;4.79;96.12;99752.94;4953244;28;20485;-49